sensor_id;sensor_type;location;lat;lon;timestamp;pressure;altitude;pressure_sealevel;temperature;humidity
12676;BME280;63820;65.654;21.944;2023-02-27T00:00:09;101434.56;;;-9.07;100.00
12676;BME280;63820;65.654;21.944;2023-02-27T00:02:57;101433.28;;;-8.99;100.00
12676;BME280;63820;65.654;21.944;2023-02-27T00:05:42;101436.84;;;-8.95;100.00
12676;BME280;63820;65.654;21.944;2023-02-27T00:08:26;101431.50;;;-9.01;100.00
12676;BME280;63820;65.654;21.944;2023-02-27T00:11:10;101434.00;;;-9.01;100.00
12676;BME280;63820;65.654;21.944;2023-02-27T00:13:55;101428.41;;;-8.96;100.00
12676;BME280;63820;65.654;21.944;2023-02-27T00:16:39;101421.88;;;-8.92;100.00
12676;BME280;63820;65.654;21.944;2023-02-27T00:19:23;101413.44;;;-8.93;100.00
12676;BME280;63820;65.654;21.944;2023-02-27T00:22:07;101414.31;;;-8.92;100.00
12676;BME280;63820;65.654;21.944;2023-02-27T00:24:52;101417.13;;;-8.86;100.00
12676;BME280;63820;65.654;21.944;2023-02-27T00:27:36;101415.72;;;-8.81;100.00
12676;BME280;63820;65.654;21.944;2023-02-27T00:30:20;101412.78;;;-8.72;100.00
12676;BME280;63820;65.654;21.944;2023-02-27T00:33:04;101410.75;;;-8.79;100.00
12676;BME280;63820;65.654;21.944;2023-02-27T00:35:59;101413.97;;;-8.82;100.00
12676;BME280;63820;65.654;21.944;2023-02-27T00:38:44;101419.50;;;-8.89;100.00
12676;BME280;63820;65.654;21.944;2023-02-27T00:41:28;101411.19;;;-9.04;100.00
12676;BME280;63820;65.654;21.944;2023-02-27T00:44:12;101427.88;;;-9.06;100.00
12676;BME280;63820;65.654;21.944;2023-02-27T00:46:56;101425.03;;;-9.12;100.00
12676;BME280;63820;65.654;21.944;2023-02-27T00:49:40;101424.66;;;-9.20;100.00
12676;BME280;63820;65.654;21.944;2023-02-27T00:52:25;101430.94;;;-9.28;100.00
12676;BME280;63820;65.654;21.944;2023-02-27T00:55:10;101430.53;;;-9.36;100.00
12676;BME280;63820;65.654;21.944;2023-02-27T00:57:54;101424.59;;;-9.38;100.00
12676;BME280;63820;65.654;21.944;2023-02-27T01:00:38;101420.66;;;-9.49;100.00
12676;BME280;63820;65.654;21.944;2023-02-27T01:03:23;101418.13;;;-9.49;100.00
12676;BME280;63820;65.654;21.944;2023-02-27T01:06:07;101418.66;;;-9.54;100.00
12676;BME280;63820;65.654;21.944;2023-02-27T01:08:51;101434.31;;;-9.60;100.00
12676;BME280;63820;65.654;21.944;2023-02-27T01:11:34;101414.75;;;-9.49;100.00
12676;BME280;63820;65.654;21.944;2023-02-27T01:14:19;101414.19;;;-9.60;100.00
12676;BME280;63820;65.654;21.944;2023-02-27T01:17:03;101412.38;;;-9.63;100.00
12676;BME280;63820;65.654;21.944;2023-02-27T01:19:48;101419.38;;;-9.57;100.00
12676;BME280;63820;65.654;21.944;2023-02-27T01:22:32;101419.84;;;-9.64;100.00
12676;BME280;63820;65.654;21.944;2023-02-27T01:25:17;101417.78;;;-9.71;100.00
12676;BME280;63820;65.654;21.944;2023-02-27T01:28:02;101412.41;;;-9.77;100.00
12676;BME280;63820;65.654;21.944;2023-02-27T01:30:46;101412.41;;;-9.77;100.00
12676;BME280;63820;65.654;21.944;2023-02-27T01:33:30;101410.84;;;-9.75;100.00
12676;BME280;63820;65.654;21.944;2023-02-27T01:36:14;101400.94;;;-9.72;100.00
12676;BME280;63820;65.654;21.944;2023-02-27T01:38:59;101411.81;;;-9.57;100.00
12676;BME280;63820;65.654;21.944;2023-02-27T01:41:43;101407.44;;;-9.45;100.00
12676;BME280;63820;65.654;21.944;2023-02-27T01:44:28;101387.28;;;-9.45;100.00
12676;BME280;63820;65.654;21.944;2023-02-27T01:47:13;101411.66;;;-9.28;100.00
12676;BME280;63820;65.654;21.944;2023-02-27T01:49:58;101415.44;;;-9.19;100.00
12676;BME280;63820;65.654;21.944;2023-02-27T01:52:43;101412.28;;;-9.15;100.00
12676;BME280;63820;65.654;21.944;2023-02-27T01:55:32;101421.09;;;-9.07;100.00
12676;BME280;63820;65.654;21.944;2023-02-27T01:58:17;101416.38;;;-9.01;100.00
12676;BME280;63820;65.654;21.944;2023-02-27T02:01:02;101404.72;;;-8.99;100.00
12676;BME280;63820;65.654;21.944;2023-02-27T02:07:04;101403.22;;;-8.96;100.00
12676;BME280;63820;65.654;21.944;2023-02-27T02:09:52;101398.25;;;-8.94;100.00
12676;BME280;63820;65.654;21.944;2023-02-27T02:12:37;101376.03;;;-9.01;100.00
12676;BME280;63820;65.654;21.944;2023-02-27T02:15:26;101379.88;;;-8.92;100.00
12676;BME280;63820;65.654;21.944;2023-02-27T02:56:11;101353.75;;;-9.76;100.00
12676;BME280;63820;65.654;21.944;2023-02-27T03:02:13;101354.44;;;-9.79;100.00
12676;BME280;63820;65.654;21.944;2023-02-27T03:05:09;101362.53;;;-9.84;100.00
12676;BME280;63820;65.654;21.944;2023-02-27T03:08:12;101354.09;;;-10.01;100.00
12676;BME280;63820;65.654;21.944;2023-02-27T03:11:00;101370.75;;;-10.03;100.00
12676;BME280;63820;65.654;21.944;2023-02-27T03:13:52;101363.59;;;-10.12;100.00
12676;BME280;63820;65.654;21.944;2023-02-27T03:16:44;101367.19;;;-10.23;100.00
12676;BME280;63820;65.654;21.944;2023-02-27T03:19:48;101365.00;;;-10.17;100.00
12676;BME280;63820;65.654;21.944;2023-02-27T03:22:37;101364.84;;;-10.20;100.00
12676;BME280;63820;65.654;21.944;2023-02-27T03:25:24;101364.00;;;-10.20;100.00
12676;BME280;63820;65.654;21.944;2023-02-27T03:28:14;101361.91;;;-10.28;100.00
12676;BME280;63820;65.654;21.944;2023-02-27T03:31:07;101362.84;;;-10.42;100.00
12676;BME280;63820;65.654;21.944;2023-02-27T03:37:04;101371.69;;;-10.48;100.00
12676;BME280;63820;65.654;21.944;2023-02-27T03:42:53;101361.03;;;-10.59;100.00
12676;BME280;63820;65.654;21.944;2023-02-27T03:48:49;101351.44;;;-10.66;100.00
12676;BME280;63820;65.654;21.944;2023-02-27T03:51:34;101342.25;;;-10.66;100.00
12676;BME280;63820;65.654;21.944;2023-02-27T03:54:27;101334.81;;;-10.79;100.00
12676;BME280;63820;65.654;21.944;2023-02-27T03:57:14;101320.44;;;-10.96;100.00
12676;BME280;63820;65.654;21.944;2023-02-27T03:59:58;101318.69;;;-10.97;100.00
12676;BME280;63820;65.654;21.944;2023-02-27T04:02:45;101317.31;;;-10.92;100.00
12676;BME280;63820;65.654;21.944;2023-02-27T04:05:30;101319.66;;;-10.95;100.00
12676;BME280;63820;65.654;21.944;2023-02-27T04:12:09;101316.09;;;-10.99;100.00
12676;BME280;63820;65.654;21.944;2023-02-27T04:15:06;101325.28;;;-10.99;100.00
12676;BME280;63820;65.654;21.944;2023-02-27T04:20:43;101313.31;;;-11.03;100.00
12676;BME280;63820;65.654;21.944;2023-02-27T04:26:47;101315.56;;;-10.93;100.00
12676;BME280;63820;65.654;21.944;2023-02-27T04:29:55;101308.22;;;-11.05;100.00
12676;BME280;63820;65.654;21.944;2023-02-27T04:35:52;101308.97;;;-11.20;100.00
12676;BME280;63820;65.654;21.944;2023-02-27T04:38:47;101299.00;;;-11.34;100.00
12676;BME280;63820;65.654;21.944;2023-02-27T04:41:39;101301.16;;;-11.40;100.00
12676;BME280;63820;65.654;21.944;2023-02-27T04:44:25;101298.44;;;-11.44;100.00
12676;BME280;63820;65.654;21.944;2023-02-27T04:47:13;101307.44;;;-11.48;100.00
12676;BME280;63820;65.654;21.944;2023-02-27T04:50:06;101299.44;;;-11.56;100.00
12676;BME280;63820;65.654;21.944;2023-02-27T04:53:08;101310.59;;;-11.65;100.00
12676;BME280;63820;65.654;21.944;2023-02-27T04:56:01;101310.03;;;-11.74;100.00
12676;BME280;63820;65.654;21.944;2023-02-27T04:58:51;101305.66;;;-11.78;100.00
12676;BME280;63820;65.654;21.944;2023-02-27T05:01:40;101317.06;;;-11.69;100.00
12676;BME280;63820;65.654;21.944;2023-02-27T05:04:30;101323.91;;;-11.66;100.00
12676;BME280;63820;65.654;21.944;2023-02-27T05:07:17;101320.34;;;-11.70;100.00
12676;BME280;63820;65.654;21.944;2023-02-27T05:10:15;101304.38;;;-11.57;100.00
12676;BME280;63820;65.654;21.944;2023-02-27T05:13:08;101313.63;;;-11.41;100.00
12676;BME280;63820;65.654;21.944;2023-02-27T05:16:03;101308.03;;;-11.23;100.00
12676;BME280;63820;65.654;21.944;2023-02-27T05:18:50;101312.09;;;-10.95;100.00
12676;BME280;63820;65.654;21.944;2023-02-27T05:21:50;101290.25;;;-10.67;100.00
12676;BME280;63820;65.654;21.944;2023-02-27T05:27:58;101268.63;;;-10.32;100.00
12676;BME280;63820;65.654;21.944;2023-02-27T05:31:07;101278.06;;;-10.28;100.00
12676;BME280;63820;65.654;21.944;2023-02-27T05:33:57;101289.69;;;-10.30;100.00
12676;BME280;63820;65.654;21.944;2023-02-27T05:36:46;101288.66;;;-10.34;100.00
12676;BME280;63820;65.654;21.944;2023-02-27T05:39:35;101293.63;;;-10.35;100.00
12676;BME280;63820;65.654;21.944;2023-02-27T05:42:32;101296.03;;;-10.37;100.00
12676;BME280;63820;65.654;21.944;2023-02-27T05:45:22;101301.06;;;-10.37;100.00
12676;BME280;63820;65.654;21.944;2023-02-27T05:48:16;101287.50;;;-10.40;100.00
12676;BME280;63820;65.654;21.944;2023-02-27T05:51:05;101287.97;;;-10.31;100.00
12676;BME280;63820;65.654;21.944;2023-02-27T05:54:00;101270.97;;;-10.35;100.00
12676;BME280;63820;65.654;21.944;2023-02-27T05:56:46;101265.00;;;-10.37;100.00
12676;BME280;63820;65.654;21.944;2023-02-27T05:59:53;101263.22;;;-10.40;100.00
12676;BME280;63820;65.654;21.944;2023-02-27T06:02:41;101259.34;;;-10.49;100.00
12676;BME280;63820;65.654;21.944;2023-02-27T06:05:26;101249.31;;;-10.49;100.00
12676;BME280;63820;65.654;21.944;2023-02-27T06:08:10;101251.19;;;-10.45;100.00
12676;BME280;63820;65.654;21.944;2023-02-27T06:10:55;101236.97;;;-10.45;100.00
12676;BME280;63820;65.654;21.944;2023-02-27T06:13:39;101246.94;;;-10.30;100.00
12676;BME280;63820;65.654;21.944;2023-02-27T06:16:24;101236.63;;;-10.18;100.00
12676;BME280;63820;65.654;21.944;2023-02-27T06:19:08;101234.75;;;-10.06;100.00
12676;BME280;63820;65.654;21.944;2023-02-27T06:21:53;101223.50;;;-9.97;100.00
12676;BME280;63820;65.654;21.944;2023-02-27T06:24:37;101224.28;;;-9.81;100.00
12676;BME280;63820;65.654;21.944;2023-02-27T06:27:21;101212.47;;;-9.66;100.00
12676;BME280;63820;65.654;21.944;2023-02-27T06:30:06;101210.25;;;-9.60;100.00
12676;BME280;63820;65.654;21.944;2023-02-27T06:32:50;101208.91;;;-9.36;100.00
12676;BME280;63820;65.654;21.944;2023-02-27T06:35:34;101219.09;;;-9.16;100.00
12676;BME280;63820;65.654;21.944;2023-02-27T06:38:19;101213.19;;;-8.99;100.00
12676;BME280;63820;65.654;21.944;2023-02-27T06:41:03;101216.78;;;-8.76;100.00
12676;BME280;63820;65.654;21.944;2023-02-27T06:43:48;101219.78;;;-8.66;100.00
12676;BME280;63820;65.654;21.944;2023-02-27T06:46:32;101210.41;;;-8.50;100.00
12676;BME280;63820;65.654;21.944;2023-02-27T06:49:16;101207.13;;;-8.29;100.00
12676;BME280;63820;65.654;21.944;2023-02-27T06:52:00;101196.44;;;-8.04;100.00
12676;BME280;63820;65.654;21.944;2023-02-27T06:54:45;101187.22;;;-8.03;100.00
12676;BME280;63820;65.654;21.944;2023-02-27T06:57:29;101188.47;;;-7.94;100.00
12676;BME280;63820;65.654;21.944;2023-02-27T07:00:14;101192.69;;;-7.73;100.00
12676;BME280;63820;65.654;21.944;2023-02-27T07:02:58;101190.00;;;-7.57;100.00
12676;BME280;63820;65.654;21.944;2023-02-27T07:05:45;101196.09;;;-7.52;100.00
12676;BME280;63820;65.654;21.944;2023-02-27T07:08:29;101209.44;;;-7.35;100.00
12676;BME280;63820;65.654;21.944;2023-02-27T07:11:14;101189.78;;;-7.20;100.00
12676;BME280;63820;65.654;21.944;2023-02-27T07:13:58;101185.47;;;-7.02;100.00
12676;BME280;63820;65.654;21.944;2023-02-27T07:16:42;101176.34;;;-6.98;100.00
12676;BME280;63820;65.654;21.944;2023-02-27T07:19:27;101174.69;;;-6.75;100.00
12676;BME280;63820;65.654;21.944;2023-02-27T07:22:11;101161.78;;;-6.37;100.00
12676;BME280;63820;65.654;21.944;2023-02-27T07:24:55;101163.97;;;-6.22;100.00
12676;BME280;63820;65.654;21.944;2023-02-27T07:27:40;101150.19;;;-6.06;100.00
12676;BME280;63820;65.654;21.944;2023-02-27T07:30:24;101155.94;;;-5.85;100.00
12676;BME280;63820;65.654;21.944;2023-02-27T07:33:08;101159.44;;;-5.56;100.00
12676;BME280;63820;65.654;21.944;2023-02-27T07:35:53;101157.22;;;-5.47;100.00
12676;BME280;63820;65.654;21.944;2023-02-27T07:38:37;101147.50;;;-5.06;100.00
12676;BME280;63820;65.654;21.944;2023-02-27T07:41:21;101144.47;;;-4.95;100.00
12676;BME280;63820;65.654;21.944;2023-02-27T07:44:05;101120.03;;;-4.91;100.00
12676;BME280;63820;65.654;21.944;2023-02-27T07:46:51;101142.44;;;-4.78;100.00
12676;BME280;63820;65.654;21.944;2023-02-27T07:49:35;101126.47;;;-4.74;100.00
12676;BME280;63820;65.654;21.944;2023-02-27T07:52:19;101123.31;;;-4.67;100.00
12676;BME280;63820;65.654;21.944;2023-02-27T07:55:04;101132.44;;;-4.43;100.00
12676;BME280;63820;65.654;21.944;2023-02-27T07:57:48;101132.59;;;-4.37;100.00
12676;BME280;63820;65.654;21.944;2023-02-27T08:00:32;101125.66;;;-4.11;100.00
12676;BME280;63820;65.654;21.944;2023-02-27T08:03:16;101124.13;;;-4.05;100.00
12676;BME280;63820;65.654;21.944;2023-02-27T08:06:00;101086.84;;;-4.06;100.00
12676;BME280;63820;65.654;21.944;2023-02-27T08:08:44;101106.91;;;-3.83;100.00
12676;BME280;63820;65.654;21.944;2023-02-27T08:11:28;101098.84;;;-3.67;100.00
12676;BME280;63820;65.654;21.944;2023-02-27T08:14:12;101096.34;;;-3.66;100.00
12676;BME280;63820;65.654;21.944;2023-02-27T08:16:56;101094.19;;;-3.49;100.00
12676;BME280;63820;65.654;21.944;2023-02-27T08:19:40;101097.84;;;-3.38;100.00
12676;BME280;63820;65.654;21.944;2023-02-27T08:22:25;101082.56;;;-3.00;100.00
12676;BME280;63820;65.654;21.944;2023-02-27T08:25:10;101091.56;;;-2.75;100.00
12676;BME280;63820;65.654;21.944;2023-02-27T08:27:54;101086.34;;;-2.39;100.00
12676;BME280;63820;65.654;21.944;2023-02-27T08:30:39;101086.94;;;-2.52;100.00
12676;BME280;63820;65.654;21.944;2023-02-27T08:33:24;101084.84;;;-2.29;100.00
12676;BME280;63820;65.654;21.944;2023-02-27T08:36:08;101077.34;;;-2.20;100.00
12676;BME280;63820;65.654;21.944;2023-02-27T08:38:52;101093.53;;;-2.18;100.00
12676;BME280;63820;65.654;21.944;2023-02-27T08:41:36;101090.69;;;-1.85;100.00
12676;BME280;63820;65.654;21.944;2023-02-27T08:44:20;101101.00;;;-1.79;100.00
12676;BME280;63820;65.654;21.944;2023-02-27T08:47:05;101092.00;;;-1.57;100.00
12676;BME280;63820;65.654;21.944;2023-02-27T08:49:49;101082.25;;;-1.28;100.00
12676;BME280;63820;65.654;21.944;2023-02-27T08:52:34;101079.09;;;-1.11;100.00
12676;BME280;63820;65.654;21.944;2023-02-27T08:55:18;101077.81;;;-0.78;100.00
12676;BME280;63820;65.654;21.944;2023-02-27T08:58:03;101072.22;;;-0.48;100.00
12676;BME280;63820;65.654;21.944;2023-02-27T09:00:47;101065.66;;;-0.25;100.00
12676;BME280;63820;65.654;21.944;2023-02-27T09:03:31;101074.31;;;-0.11;100.00
12676;BME280;63820;65.654;21.944;2023-02-27T09:06:15;101064.25;;;0.11;100.00
12676;BME280;63820;65.654;21.944;2023-02-27T09:09:00;101061.75;;;0.15;100.00
12676;BME280;63820;65.654;21.944;2023-02-27T09:11:44;101056.06;;;0.54;100.00
12676;BME280;63820;65.654;21.944;2023-02-27T09:14:29;101058.84;;;0.86;100.00
12676;BME280;63820;65.654;21.944;2023-02-27T09:17:13;101058.09;;;1.10;100.00
12676;BME280;63820;65.654;21.944;2023-02-27T09:19:58;101052.19;;;1.28;100.00
12676;BME280;63820;65.654;21.944;2023-02-27T09:22:42;101062.56;;;1.60;100.00
12676;BME280;63820;65.654;21.944;2023-02-27T09:25:27;101054.03;;;1.75;100.00
12676;BME280;63820;65.654;21.944;2023-02-27T09:28:12;101053.22;;;1.99;100.00
12676;BME280;63820;65.654;21.944;2023-02-27T09:31:04;101049.81;;;2.03;100.00
12676;BME280;63820;65.654;21.944;2023-02-27T09:33:48;101045.50;;;2.26;100.00
12676;BME280;63820;65.654;21.944;2023-02-27T09:36:32;101033.53;;;2.46;100.00
12676;BME280;63820;65.654;21.944;2023-02-27T09:39:17;101036.91;;;2.73;100.00
12676;BME280;63820;65.654;21.944;2023-02-27T09:42:04;101025.72;;;2.92;100.00
12676;BME280;63820;65.654;21.944;2023-02-27T09:44:55;101015.31;;;3.19;100.00
12676;BME280;63820;65.654;21.944;2023-02-27T09:47:44;101011.72;;;3.51;100.00
12676;BME280;63820;65.654;21.944;2023-02-27T09:50:43;101004.69;;;3.80;100.00
12676;BME280;63820;65.654;21.944;2023-02-27T09:53:33;101017.47;;;3.92;100.00
12676;BME280;63820;65.654;21.944;2023-02-27T10:05:38;101003.81;;;3.80;100.00
12676;BME280;63820;65.654;21.944;2023-02-27T10:08:35;101000.44;;;3.72;100.00
12676;BME280;63820;65.654;21.944;2023-02-27T10:14:41;100977.00;;;4.07;100.00
12676;BME280;63820;65.654;21.944;2023-02-27T10:17:43;100976.75;;;4.31;100.00
12676;BME280;63820;65.654;21.944;2023-02-27T10:20:37;100962.69;;;4.63;100.00
12676;BME280;63820;65.654;21.944;2023-02-27T10:26:31;100971.25;;;5.34;100.00
12676;BME280;63820;65.654;21.944;2023-02-27T10:29:17;100969.38;;;5.45;100.00
12676;BME280;63820;65.654;21.944;2023-02-27T10:32:13;100963.13;;;5.61;100.00
12676;BME280;63820;65.654;21.944;2023-02-27T10:35:32;100956.94;;;5.71;100.00
12676;BME280;63820;65.654;21.944;2023-02-27T10:38:32;100962.88;;;5.76;100.00
12676;BME280;63820;65.654;21.944;2023-02-27T10:41:19;100954.97;;;5.87;100.00
12676;BME280;63820;65.654;21.944;2023-02-27T10:44:04;100957.50;;;5.92;100.00
12676;BME280;63820;65.654;21.944;2023-02-27T10:46:49;100958.25;;;5.98;100.00
12676;BME280;63820;65.654;21.944;2023-02-27T10:49:34;100957.41;;;5.98;100.00
12676;BME280;63820;65.654;21.944;2023-02-27T10:52:21;100953.88;;;6.02;100.00
12676;BME280;63820;65.654;21.944;2023-02-27T10:55:18;100952.19;;;6.01;100.00
12676;BME280;63820;65.654;21.944;2023-02-27T10:58:06;100951.44;;;5.94;100.00
12676;BME280;63820;65.654;21.944;2023-02-27T11:00:56;100953.09;;;5.98;100.00
12676;BME280;63820;65.654;21.944;2023-02-27T11:03:43;100959.97;;;5.99;100.00
12676;BME280;63820;65.654;21.944;2023-02-27T11:06:27;100936.53;;;6.10;100.00
12676;BME280;63820;65.654;21.944;2023-02-27T11:09:26;100942.50;;;6.13;100.00
12676;BME280;63820;65.654;21.944;2023-02-27T11:12:21;100946.22;;;5.97;100.00
12676;BME280;63820;65.654;21.944;2023-02-27T11:18:27;100962.59;;;5.96;100.00
12676;BME280;63820;65.654;21.944;2023-02-27T11:21:23;100962.81;;;5.81;100.00
12676;BME280;63820;65.654;21.944;2023-02-27T11:24:18;100951.56;;;5.83;100.00
12676;BME280;63820;65.654;21.944;2023-02-27T11:30:20;100944.03;;;5.71;100.00
12676;BME280;63820;65.654;21.944;2023-02-27T11:33:17;100941.34;;;5.77;100.00
12676;BME280;63820;65.654;21.944;2023-02-27T11:36:02;100933.59;;;5.77;100.00
12676;BME280;63820;65.654;21.944;2023-02-27T11:38:54;100937.47;;;6.06;100.00
12676;BME280;63820;65.654;21.944;2023-02-27T11:41:39;100957.25;;;6.07;100.00
12676;BME280;63820;65.654;21.944;2023-02-27T11:44:28;100947.81;;;6.04;100.00
12676;BME280;63820;65.654;21.944;2023-02-27T11:47:16;100944.50;;;5.98;100.00
12676;BME280;63820;65.654;21.944;2023-02-27T11:55:52;100947.38;;;5.76;100.00
12676;BME280;63820;65.654;21.944;2023-02-27T11:58:56;100937.97;;;5.74;100.00
12676;BME280;63820;65.654;21.944;2023-02-27T12:01:53;100931.03;;;5.76;100.00
12676;BME280;63820;65.654;21.944;2023-02-27T12:05:13;100900.91;;;5.76;100.00
12676;BME280;63820;65.654;21.944;2023-02-27T12:08:03;100897.94;;;6.01;100.00
12676;BME280;63820;65.654;21.944;2023-02-27T12:11:03;100889.94;;;6.16;100.00
12676;BME280;63820;65.654;21.944;2023-02-27T12:13:57;100886.94;;;6.36;100.00
12676;BME280;63820;65.654;21.944;2023-02-27T12:16:50;100889.09;;;6.57;100.00
12676;BME280;63820;65.654;21.944;2023-02-27T12:19:41;100874.31;;;6.64;100.00
12676;BME280;63820;65.654;21.944;2023-02-27T12:22:31;100885.47;;;6.66;100.00
12676;BME280;63820;65.654;21.944;2023-02-27T12:25:50;100890.34;;;6.81;98.28
12676;BME280;63820;65.654;21.944;2023-02-27T12:31:44;100881.44;;;6.94;97.09
12676;BME280;63820;65.654;21.944;2023-02-27T12:34:57;100876.09;;;6.62;100.00
12676;BME280;63820;65.654;21.944;2023-02-27T12:37:42;100878.47;;;6.71;100.00
12676;BME280;63820;65.654;21.944;2023-02-27T12:40:45;100879.22;;;6.77;100.00
12676;BME280;63820;65.654;21.944;2023-02-27T12:43:44;100873.16;;;6.78;100.00
12676;BME280;63820;65.654;21.944;2023-02-27T12:47:33;100878.59;;;6.65;100.00
12676;BME280;63820;65.654;21.944;2023-02-27T12:50:04;100868.00;;;6.77;100.00
12676;BME280;63820;65.654;21.944;2023-02-27T12:56:20;100839.81;;;7.05;96.14
12676;BME280;63820;65.654;21.944;2023-02-27T13:02:34;100827.50;;;7.14;92.54
12676;BME280;63820;65.654;21.944;2023-02-27T13:11:43;100822.19;;;6.83;94.64
12676;BME280;63820;65.654;21.944;2023-02-27T13:14:38;100826.97;;;7.00;91.28
12676;BME280;63820;65.654;21.944;2023-02-27T13:20:37;100824.84;;;7.17;84.22
12676;BME280;63820;65.654;21.944;2023-02-27T13:23:41;100819.78;;;7.47;79.84
12676;BME280;63820;65.654;21.944;2023-02-27T13:26:41;100816.09;;;7.57;78.80
12676;BME280;63820;65.654;21.944;2023-02-27T13:29:39;100814.88;;;7.70;76.67
12676;BME280;63820;65.654;21.944;2023-02-27T13:38:46;100794.03;;;8.37;71.05
12676;BME280;63820;65.654;21.944;2023-02-27T13:47:45;100788.38;;;7.93;71.70
12676;BME280;63820;65.654;21.944;2023-02-27T13:53:16;100795.81;;;7.73;72.77
12676;BME280;63820;65.654;21.944;2023-02-27T13:56:22;100774.28;;;7.38;74.95
12676;BME280;63820;65.654;21.944;2023-02-27T14:04:59;100748.25;;;7.10;77.15
12676;BME280;63820;65.654;21.944;2023-02-27T14:08:04;100746.56;;;7.09;78.34
12676;BME280;63820;65.654;21.944;2023-02-27T14:14:03;100743.72;;;7.20;78.70
12676;BME280;63820;65.654;21.944;2023-02-27T14:22:30;100735.69;;;6.95;82.93
12676;BME280;63820;65.654;21.944;2023-02-27T14:26:16;100723.97;;;6.43;87.75
12676;BME280;63820;65.654;21.944;2023-02-27T14:29:02;100706.78;;;6.42;88.69
12676;BME280;63820;65.654;21.944;2023-02-27T14:31:48;100706.97;;;6.33;90.12
12676;BME280;63820;65.654;21.944;2023-02-27T14:34:34;100719.88;;;6.33;90.45
12676;BME280;63820;65.654;21.944;2023-02-27T14:37:24;100695.16;;;6.23;90.46
12676;BME280;63820;65.654;21.944;2023-02-27T14:40:18;100695.25;;;6.20;92.98
12676;BME280;63820;65.654;21.944;2023-02-27T14:43:13;100680.91;;;6.05;93.85
12676;BME280;63820;65.654;21.944;2023-02-27T14:46:06;100675.16;;;5.93;95.79
12676;BME280;63820;65.654;21.944;2023-02-27T14:48:55;100686.59;;;5.79;98.32
12676;BME280;63820;65.654;21.944;2023-02-27T14:51:39;100685.66;;;5.83;97.98
12676;BME280;63820;65.654;21.944;2023-02-27T14:54:25;100678.38;;;5.59;100.00
12676;BME280;63820;65.654;21.944;2023-02-27T14:57:17;100662.63;;;5.73;99.07
12676;BME280;63820;65.654;21.944;2023-02-27T15:00:02;100671.19;;;5.75;99.24
12676;BME280;63820;65.654;21.944;2023-02-27T15:02:48;100656.56;;;5.75;99.08
12676;BME280;63820;65.654;21.944;2023-02-27T15:05:33;100654.56;;;5.88;96.81
12676;BME280;63820;65.654;21.944;2023-02-27T15:08:39;100654.56;;;5.89;97.21
12676;BME280;63820;65.654;21.944;2023-02-27T15:11:24;100657.91;;;5.95;96.10
12676;BME280;63820;65.654;21.944;2023-02-27T15:14:17;100651.31;;;5.78;97.58
12676;BME280;63820;65.654;21.944;2023-02-27T15:17:03;100636.81;;;5.73;98.85
12676;BME280;63820;65.654;21.944;2023-02-27T15:19:57;100650.50;;;5.76;98.22
12676;BME280;63820;65.654;21.944;2023-02-27T15:22:42;100647.97;;;5.75;98.20
12676;BME280;63820;65.654;21.944;2023-02-27T15:25:36;100649.63;;;5.77;97.99
12676;BME280;63820;65.654;21.944;2023-02-27T15:28:35;100654.66;;;5.83;97.43
12676;BME280;63820;65.654;21.944;2023-02-27T15:31:22;100664.34;;;5.74;98.90
12676;BME280;63820;65.654;21.944;2023-02-27T15:34:10;100669.72;;;5.63;99.90
12676;BME280;63820;65.654;21.944;2023-02-27T15:36:57;100670.78;;;5.51;100.00
12676;BME280;63820;65.654;21.944;2023-02-27T15:39:43;100656.06;;;5.56;100.00
12676;BME280;63820;65.654;21.944;2023-02-27T15:42:30;100644.91;;;5.56;100.00
12676;BME280;63820;65.654;21.944;2023-02-27T15:45:21;100643.00;;;5.64;100.00
12676;BME280;63820;65.654;21.944;2023-02-27T15:48:14;100630.75;;;5.75;99.00
12676;BME280;63820;65.654;21.944;2023-02-27T15:51:02;100648.06;;;5.70;99.67
12676;BME280;63820;65.654;21.944;2023-02-27T15:53:48;100630.13;;;5.64;99.81
12676;BME280;63820;65.654;21.944;2023-02-27T15:56:35;100638.09;;;5.52;100.00
12676;BME280;63820;65.654;21.944;2023-02-27T15:59:20;100637.72;;;5.70;99.60
12676;BME280;63820;65.654;21.944;2023-02-27T16:02:12;100636.25;;;5.58;100.00
12676;BME280;63820;65.654;21.944;2023-02-27T16:04:59;100632.94;;;5.52;100.00
12676;BME280;63820;65.654;21.944;2023-02-27T16:07:44;100632.84;;;5.56;100.00
12676;BME280;63820;65.654;21.944;2023-02-27T16:10:34;100650.25;;;5.47;100.00
12676;BME280;63820;65.654;21.944;2023-02-27T16:13:38;100657.09;;;5.48;100.00
12676;BME280;63820;65.654;21.944;2023-02-27T16:16:26;100666.06;;;5.29;100.00
12676;BME280;63820;65.654;21.944;2023-02-27T16:19:25;100664.88;;;5.00;100.00
12676;BME280;63820;65.654;21.944;2023-02-27T16:22:18;100664.06;;;4.98;100.00
12676;BME280;63820;65.654;21.944;2023-02-27T16:25:10;100654.19;;;4.72;100.00
12676;BME280;63820;65.654;21.944;2023-02-27T16:28:01;100655.19;;;4.64;100.00
12676;BME280;63820;65.654;21.944;2023-02-27T16:30:52;100657.69;;;4.68;100.00
12676;BME280;63820;65.654;21.944;2023-02-27T16:33:37;100654.59;;;4.99;100.00
12676;BME280;63820;65.654;21.944;2023-02-27T16:36:24;100647.50;;;5.11;100.00
12676;BME280;63820;65.654;21.944;2023-02-27T16:39:12;100647.63;;;5.05;100.00
12676;BME280;63820;65.654;21.944;2023-02-27T16:41:57;100631.25;;;5.06;100.00
12676;BME280;63820;65.654;21.944;2023-02-27T16:44:41;100624.25;;;5.13;100.00
12676;BME280;63820;65.654;21.944;2023-02-27T16:47:25;100622.66;;;5.07;100.00
12676;BME280;63820;65.654;21.944;2023-02-27T16:50:40;100630.56;;;4.98;100.00